Terminal Aerodrome Forecast
Issued by NWS Sterling, VA

Home | Current Version | Previous Version | Text Only | Print | Product List | Glossary On
Versions: 1 2 3 4 5 6 7 8 9 10 11 12 13 14 15 16 17 18 19 20 21
000
FTUS41 KLWX 262340 RRA
TAFBWI
TAF
KBWI 262340Z 2700/2806 VRB03KT P6SM BKN025
     FM270500 34003KT 6SM -SHSN OVC025
     FM270900 34003KT P6SM OVC035
     FM271500 34012G20KT P6SM BKN035
     FM272200 34009KT P6SM SCT040=

USA.gov is the U.S. government's official web portal to all federal, state and local government web resources and services.